createdAt,value
2019-04-14T00:02:09.611Z,75.64
2019-04-14T00:05:17.317Z,75.47
2019-04-14T00:08:24.589Z,75.25
2019-04-14T00:11:40.887Z,75.63
2019-04-14T00:14:49.121Z,75.85
2019-04-14T00:17:56.803Z,76.02
2019-04-14T00:21:04.748Z,76.37
2019-04-14T00:24:12.551Z,77.69
2019-04-14T00:27:20.038Z,78.73
2019-04-14T00:30:27.872Z,79.11
2019-04-14T00:33:36.657Z,80.14
2019-04-14T00:37:09.918Z,78.98
2019-04-14T00:40:29.257Z,78.86
2019-04-14T00:43:41.732Z,78.18
2019-04-14T00:47:00.630Z,78.25
2019-04-14T00:50:10.056Z,80.45
2019-04-14T00:53:18.503Z,81.78
2019-04-14T00:56:26.145Z,81.52
2019-04-14T00:59:33.737Z,83.52
2019-04-14T01:02:41.011Z,83.56
2019-04-14T01:05:48.678Z,83.99
2019-04-14T01:08:57.465Z,82.92
2019-04-14T01:12:06.068Z,82.47
2019-04-14T01:15:13.863Z,82.72
2019-04-14T01:18:23.234Z,81.66
2019-04-14T01:21:30.817Z,81.32
2019-04-14T01:24:38.304Z,81.23
2019-04-14T01:27:45.693Z,81.02
2019-04-14T01:30:54.356Z,81.87
2019-04-14T01:34:04.057Z,82.23
2019-04-14T01:37:11.579Z,82.05
2019-04-14T01:40:18.833Z,81.61
2019-04-14T01:43:26.146Z,81.33
2019-04-14T01:46:35.470Z,81.31
2019-04-14T01:49:44.398Z,82.21
2019-04-14T01:53:01.818Z,84.42
2019-04-14T01:56:19.175Z,85.07
2019-04-14T01:59:26.736Z,84.44
2019-04-14T02:02:33.911Z,84.09
2019-04-14T02:05:41.299Z,84.05
2019-04-14T02:08:49.840Z,83.56
2019-04-14T02:11:57.647Z,85.48
2019-04-14T02:15:06.920Z,86.77
2019-04-14T02:18:14.421Z,86.77
2019-04-14T02:21:22.070Z,86.07
2019-04-14T02:24:30.977Z,85.81
2019-04-14T02:27:38.439Z,86.03
2019-04-14T02:30:53.605Z,85.92
2019-04-14T02:34:32.064Z,85.41
2019-04-14T02:40:43.762Z,83.86
2019-04-14T02:43:52.353Z,83.79
2019-04-14T02:47:12.820Z,84.30
2019-04-14T02:50:04.799Z,83.97
2019-04-14T02:53:35.169Z,84.36
2019-04-14T02:59:41.491Z,83.86
2019-04-14T03:02:42.316Z,84.84
2019-04-14T03:06:10.428Z,85.73
2019-04-14T03:09:11.979Z,85.55
2019-04-14T03:12:09.664Z,85.42
2019-04-14T03:18:50.631Z,85.09
2019-04-14T03:22:33.119Z,85.65
2019-04-14T03:25:31.755Z,84.57
2019-04-14T03:28:44.183Z,83.81
2019-04-14T03:35:22.164Z,84.61
2019-04-14T03:41:25.927Z,83.48
2019-04-14T03:44:34.662Z,84.19
2019-04-14T03:47:52.953Z,84.20
2019-04-14T03:50:52.467Z,83.65
2019-04-14T03:54:01.321Z,82.43
2019-04-14T03:56:48.976Z,82.42
2019-04-14T03:59:56.428Z,83.43
2019-04-14T04:03:04.146Z,83.73
2019-04-14T04:06:11.805Z,84.18
2019-04-14T04:09:21.475Z,83.36
2019-04-14T04:12:29.247Z,83.92
2019-04-14T04:15:37.228Z,84.28
2019-04-14T04:18:54.575Z,84.62
2019-04-14T04:22:17.108Z,84.94
2019-04-14T04:25:44.330Z,86.28
2019-04-14T04:29:01.023Z,86.85
2019-04-14T04:32:16.501Z,85.71
2019-04-14T04:35:33.179Z,85.24
2019-04-14T04:38:53.149Z,85.43
2019-04-14T04:42:02.669Z,86.79
2019-04-14T04:45:10.423Z,86.52
2019-04-14T04:48:19.523Z,86.51
2019-04-14T04:51:27.209Z,87.53
2019-04-14T04:54:34.904Z,88.64
2019-04-14T04:57:42.188Z,88.74
2019-04-14T05:00:52.498Z,88.69
2019-04-14T05:04:00.327Z,90.21
2019-04-14T05:07:08.077Z,90.42
2019-04-14T05:10:26.409Z,90.07
2019-04-14T05:13:38.345Z,89.01
2019-04-14T05:16:46.122Z,89.86
2019-04-14T05:19:54.066Z,90.18
2019-04-14T05:23:02.073Z,89.87
2019-04-14T05:26:09.345Z,90.58
2019-04-14T05:29:17.051Z,90.44
2019-04-14T05:32:24.319Z,89.57
2019-04-14T05:35:31.737Z,90.12
2019-04-14T05:38:40.807Z,89.31
2019-04-14T05:42:00.596Z,88.46
2019-04-14T05:44:57.912Z,86.66
2019-04-14T05:48:05.434Z,86.49
2019-04-14T05:51:13.099Z,85.54
2019-04-14T05:54:21.176Z,84.70
2019-04-14T05:57:28.844Z,83.41
2019-04-14T06:00:38.531Z,82.45
2019-04-14T06:03:47.426Z,82.03
2019-04-14T06:06:55.165Z,82.02
2019-04-14T06:10:04.159Z,82.04
2019-04-14T06:13:12.072Z,82.16
2019-04-14T06:16:20.801Z,81.69
2019-04-14T06:19:37.168Z,81.29
2019-04-14T06:22:38.093Z,80.81
2019-04-14T06:25:45.784Z,80.78
2019-04-14T06:28:53.167Z,79.81
2019-04-14T06:32:20.337Z,80.26
2019-04-14T06:35:51.302Z,79.28
2019-04-14T06:39:05.114Z,78.96
2019-04-14T06:42:13.126Z,77.31
2019-04-14T06:45:20.454Z,75.86
2019-04-14T06:48:28.697Z,73.18
2019-04-14T06:51:36.869Z,71.60
2019-04-14T06:54:44.468Z,71.23
2019-04-14T06:57:51.833Z,69.31
2019-04-14T07:00:59.319Z,70.93
2019-04-14T07:04:06.864Z,73.67
2019-04-14T07:07:14.220Z,74.31
2019-04-14T07:10:21.822Z,75.13
2019-04-14T07:13:30.235Z,74.13
2019-04-14T07:16:38.008Z,73.61
2019-04-14T07:19:45.729Z,73.99
2019-04-14T07:22:53.340Z,74.53
2019-04-14T07:26:00.875Z,74.89
2019-04-14T07:29:08.699Z,75.32
2019-04-14T07:32:35.043Z,74.29
2019-04-14T07:35:59.693Z,72.23
2019-04-14T07:39:25.844Z,72.34
2019-04-14T07:42:42.834Z,71.98
2019-04-14T07:46:09.829Z,73.13
2019-04-14T07:49:36.322Z,73.09
2019-04-14T07:52:56.141Z,71.65
2019-04-14T07:56:22.145Z,68.57
2019-04-14T07:59:58.894Z,69.00
2019-04-14T08:03:22.294Z,69.85
2019-04-14T08:06:30.934Z,70.58
2019-04-14T08:09:38.313Z,71.58
2019-04-14T08:12:46.722Z,70.71
2019-04-14T08:15:54.741Z,66.32
2019-04-14T08:19:02.364Z,66.89
2019-04-14T08:22:09.989Z,67.44
2019-04-14T08:25:17.976Z,71.19
2019-04-14T08:28:25.768Z,71.37
2019-04-14T08:31:33.407Z,71.39
2019-04-14T08:34:41.753Z,71.01
2019-04-14T08:37:49.263Z,69.46
2019-04-14T08:40:57.363Z,67.45
2019-04-14T08:44:13.355Z,66.57
2019-04-14T08:47:35.493Z,67.09
2019-04-14T08:50:56.527Z,66.00
2019-04-14T08:54:09.749Z,66.76
2019-04-14T08:57:25.971Z,65.29
2019-04-14T09:00:48.154Z,64.60
2019-04-14T09:04:15.573Z,64.46
2019-04-14T09:07:27.176Z,64.64
2019-04-14T09:10:38.436Z,63.45
2019-04-14T09:13:47.021Z,62.08
2019-04-14T09:16:55.290Z,60.44
2019-04-14T09:20:04.825Z,60.78
2019-04-14T09:23:12.590Z,62.10
2019-04-14T09:26:20.575Z,60.38
2019-04-14T09:29:28.698Z,59.46
2019-04-14T09:32:36.512Z,59.82
2019-04-14T09:35:44.463Z,60.93
2019-04-14T09:38:52.586Z,61.14
2019-04-14T09:42:01.848Z,61.34
2019-04-14T09:45:10.011Z,60.07
2019-04-14T09:48:18.096Z,59.52
2019-04-14T09:51:25.872Z,59.82
2019-04-14T09:54:33.609Z,58.93
2019-04-14T09:57:43.137Z,58.24
2019-04-14T10:00:51.488Z,57.59
2019-04-14T10:04:05.327Z,57.34
2019-04-14T10:07:16.618Z,56.73
2019-04-14T10:10:24.276Z,55.40
2019-04-14T10:13:32.025Z,55.92
2019-04-14T10:16:40.405Z,55.71
2019-04-14T10:19:47.935Z,52.92
2019-04-14T10:22:55.681Z,51.90
2019-04-14T10:26:04.339Z,53.34
2019-04-14T10:29:11.953Z,55.06
2019-04-14T10:32:19.538Z,56.35
2019-04-14T10:35:27.144Z,56.48
2019-04-14T10:38:34.733Z,56.79
2019-04-14T10:41:42.443Z,58.44
2019-04-14T10:44:49.920Z,58.84
2019-04-14T10:47:57.218Z,58.11
2019-04-14T10:51:04.648Z,58.45
2019-04-14T10:54:12.145Z,58.86
2019-04-14T10:57:19.521Z,59.81
2019-04-14T11:00:27.473Z,60.31
2019-04-14T11:03:35.509Z,61.35
2019-04-14T11:07:04.406Z,61.33
2019-04-14T11:10:12.399Z,60.82
2019-04-14T11:13:19.581Z,60.64
2019-04-14T11:16:26.763Z,61.01
2019-04-14T11:19:34.700Z,62.03
2019-04-14T11:22:41.995Z,62.05
2019-04-14T11:25:49.196Z,62.14
2019-04-14T11:28:56.836Z,62.26
2019-04-14T11:32:23.070Z,62.64
2019-04-14T11:35:35.129Z,62.67
2019-04-14T11:39:05.038Z,62.13
2019-04-14T11:42:12.459Z,62.79
2019-04-14T11:45:20.289Z,63.43
2019-04-14T11:48:27.809Z,63.80
2019-04-14T11:51:35.339Z,63.07
2019-04-14T11:54:42.754Z,63.26
2019-04-14T11:57:50.348Z,63.67
2019-04-14T12:01:16.476Z,63.53
2019-04-14T12:04:31.844Z,63.55
2019-04-14T12:07:48.695Z,63.09
2019-04-14T12:10:56.748Z,62.78
2019-04-14T12:14:05.479Z,62.21
2019-04-14T12:17:13.269Z,62.57
2019-04-14T12:20:20.604Z,61.92
2019-04-14T12:23:28.236Z,62.54
2019-04-14T12:26:35.540Z,62.25
2019-04-14T12:29:43.313Z,61.78
2019-04-14T12:32:52.656Z,62.22
2019-04-14T12:36:02.159Z,60.69
2019-04-14T12:39:21.038Z,60.12
2019-04-14T12:42:54.586Z,58.73
2019-04-14T12:46:22.087Z,58.69
2019-04-14T12:49:39.295Z,57.82
2019-04-14T12:52:49.900Z,58.19
2019-04-14T12:55:57.473Z,58.02
2019-04-14T12:59:24.678Z,57.61
2019-04-14T13:02:36.273Z,57.22
2019-04-14T13:05:44.722Z,57.97
2019-04-14T13:08:52.890Z,57.87
2019-04-14T13:12:00.584Z,58.10
2019-04-14T13:15:09.009Z,57.74
2019-04-14T13:18:17.201Z,57.67
2019-04-14T13:21:25.155Z,57.58
2019-04-14T13:24:32.883Z,57.57
2019-04-14T13:27:40.752Z,56.66
2019-04-14T13:30:49.513Z,57.55
2019-04-14T13:33:57.772Z,57.73
2019-04-14T13:37:10.391Z,58.32
2019-04-14T13:40:18.574Z,59.00
2019-04-14T13:43:26.794Z,58.93
2019-04-14T13:46:34.654Z,58.50
2019-04-14T13:49:42.465Z,58.93
2019-04-14T13:52:51.261Z,58.38
2019-04-14T13:55:59.063Z,58.02
2019-04-14T13:59:06.689Z,57.28
2019-04-14T14:02:14.043Z,57.66
2019-04-14T14:05:22.399Z,56.50
2019-04-14T14:08:30.570Z,56.29
2019-04-14T14:12:00.578Z,56.14
2019-04-14T14:15:47.539Z,56.13
2019-04-14T14:19:09.885Z,56.04
2019-04-14T14:22:31.121Z,55.50
2019-04-14T14:25:42.847Z,55.78
2019-04-14T14:28:50.356Z,55.35
2019-04-14T14:32:01.458Z,55.40
2019-04-14T14:35:09.457Z,55.18
2019-04-14T14:38:17.225Z,55.10
2019-04-14T14:41:25.108Z,55.70
2019-04-14T14:44:38.592Z,55.73
2019-04-14T14:48:11.871Z,55.73
2019-04-14T14:51:38.109Z,56.98
2019-04-14T14:54:45.586Z,56.95
2019-04-14T14:57:54.120Z,57.50
2019-04-14T15:01:04.023Z,58.52
2019-04-14T15:04:11.634Z,58.36
2019-04-14T15:07:19.769Z,59.28
2019-04-14T15:18:16.381Z,58.46
2019-04-14T15:21:26.742Z,59.55
2019-04-14T15:24:34.559Z,60.21
2019-04-14T15:27:42.364Z,60.96
2019-04-14T15:30:50.163Z,62.18
2019-04-14T15:33:57.790Z,61.67
2019-04-14T15:37:05.388Z,62.18
2019-04-14T15:40:13.261Z,61.98
2019-04-14T15:43:21.128Z,62.30
2019-04-14T15:46:28.597Z,62.39
2019-04-14T15:49:36.200Z,62.71
2019-04-14T15:52:44.444Z,62.25
2019-04-14T15:55:52.349Z,62.43
2019-04-14T15:59:08.662Z,63.20
2019-04-14T16:02:55.115Z,63.65
2019-04-14T16:06:15.971Z,64.58
2019-04-14T16:09:30.734Z,63.98
2019-04-14T16:13:01.114Z,64.28
2019-04-14T16:16:31.433Z,64.09
2019-04-14T16:19:53.220Z,64.74
2019-04-14T16:23:01.783Z,64.92
2019-04-14T16:26:26.293Z,65.58
2019-04-14T16:29:41.269Z,65.12
2019-04-14T16:33:14.548Z,64.15
2019-04-14T16:36:22.763Z,64.11
2019-04-14T16:39:30.847Z,64.07
2019-04-14T16:42:39.403Z,63.37
2019-04-14T16:45:47.505Z,63.40
2019-04-14T16:48:55.302Z,61.57
2019-04-14T16:52:22.569Z,61.95
2019-04-14T16:55:35.550Z,62.78
2019-04-14T16:58:46.607Z,63.14
2019-04-14T17:01:54.403Z,63.49
2019-04-14T17:05:04.327Z,64.31
2019-04-14T17:08:12.262Z,63.92
2019-04-14T17:11:20.002Z,64.56
2019-04-14T17:14:41.448Z,65.37
2019-04-14T17:18:08.802Z,65.50
2019-04-14T17:21:30.874Z,65.99
2019-04-14T17:24:56.670Z,66.08
2019-04-14T17:28:23.930Z,66.83
2019-04-14T17:31:50.370Z,67.57
2019-04-14T17:35:25.047Z,67.38
2019-04-14T17:39:10.852Z,67.78
2019-04-14T17:42:27.915Z,68.42
2019-04-14T17:45:45.567Z,68.88
2019-04-14T17:49:12.013Z,69.46
2019-04-14T17:52:40.863Z,69.63
2019-04-14T17:56:07.025Z,70.73
2019-04-14T17:59:25.579Z,70.04
2019-04-14T18:02:58.582Z,70.00
2019-04-14T18:06:24.887Z,70.61
2019-04-14T18:09:55.001Z,70.68
2019-04-14T18:16:26.083Z,71.78
2019-04-14T18:19:44.420Z,72.17
2019-04-14T18:22:52.039Z,71.91
2019-04-14T18:26:00.189Z,71.65
2019-04-14T18:29:29.994Z,72.64
2019-04-14T18:32:49.850Z,73.24
2019-04-14T18:36:08.692Z,73.08
2019-04-14T18:39:36.503Z,74.08
2019-04-14T18:43:16.266Z,74.59
2019-04-14T18:46:46.974Z,74.92
2019-04-14T18:50:14.785Z,75.80
2019-04-14T18:53:27.907Z,75.20
2019-04-14T18:56:43.995Z,75.93
2019-04-14T18:59:56.845Z,75.72
2019-04-14T19:03:05.382Z,74.62
2019-04-14T19:06:12.982Z,74.97
2019-04-14T19:09:33.993Z,73.35
2019-04-14T19:12:58.981Z,74.00
2019-04-14T19:16:11.802Z,75.60
2019-04-14T19:19:20.111Z,75.44
2019-04-14T19:22:27.877Z,74.18
2019-04-14T19:25:35.885Z,72.98
2019-04-14T19:28:44.547Z,73.90
2019-04-14T19:31:52.063Z,75.36
2019-04-14T19:35:01.467Z,76.10
2019-04-14T19:38:09.255Z,76.31
2019-04-14T19:41:16.994Z,76.81
2019-04-14T19:44:25.270Z,77.61
2019-04-14T19:47:33.096Z,78.37
2019-04-14T19:50:41.215Z,78.94
2019-04-14T19:53:49.599Z,78.45
2019-04-14T19:56:57.511Z,79.35
2019-04-14T20:00:06.358Z,80.75
2019-04-14T20:03:13.928Z,80.46
2019-04-14T20:06:22.011Z,77.53
2019-04-14T20:09:30.906Z,79.53
2019-04-14T20:12:39.684Z,82.49
2019-04-14T20:16:10.208Z,83.37
2019-04-14T20:19:33.103Z,83.41
2019-04-14T20:23:09.356Z,81.56
2019-04-14T20:26:25.840Z,82.55
2019-04-14T20:29:37.254Z,82.03
2019-04-14T20:32:44.908Z,82.11
2019-04-14T20:35:52.337Z,82.70
2019-04-14T20:39:00.432Z,82.02
2019-04-14T20:42:08.403Z,81.24
2019-04-14T20:45:16.908Z,81.04
2019-04-14T20:48:25.419Z,81.19
2019-04-14T20:51:33.974Z,82.30
2019-04-14T20:54:42.042Z,82.19
2019-04-14T20:57:50.446Z,84.66
2019-04-14T21:00:58.295Z,85.98
2019-04-14T21:04:28.169Z,86.00
2019-04-14T21:08:04.836Z,87.62
2019-04-14T21:11:19.312Z,88.00
2019-04-14T21:14:43.085Z,87.62
2019-04-14T21:18:09.659Z,88.69
2019-04-14T21:21:42.260Z,90.23
2019-04-14T21:24:57.402Z,90.42
2019-04-14T21:28:32.555Z,91.05
2019-04-14T21:31:46.056Z,91.83
2019-04-14T21:35:06.431Z,91.92
2019-04-14T21:38:33.826Z,91.54
2019-04-14T21:41:43.055Z,91.04
2019-04-14T21:44:50.767Z,91.85
2019-04-14T21:47:58.862Z,92.82
2019-04-14T21:51:08.035Z,93.62
2019-04-14T21:54:17.777Z,94.63
2019-04-14T21:57:44.772Z,95.05
2019-04-14T22:01:54.213Z,96.28
2019-04-14T22:05:15.822Z,94.78
2019-04-14T22:08:27.085Z,96.47
2019-04-14T22:11:34.555Z,97.30
2019-04-14T22:14:42.320Z,98.37
2019-04-14T22:17:50.649Z,100.00
2019-04-14T22:20:58.874Z,100.00
2019-04-14T22:24:06.863Z,100.00
2019-04-14T22:27:20.027Z,100.00
2019-04-14T22:30:27.531Z,100.00
2019-04-14T22:33:35.402Z,100.00
2019-04-14T22:36:43.067Z,98.97
2019-04-14T22:39:50.762Z,100.00
2019-04-14T22:42:58.339Z,100.00
2019-04-14T22:46:05.685Z,100.00
2019-04-14T22:49:13.126Z,100.00
2019-04-14T22:52:20.302Z,100.00
2019-04-14T22:55:30.850Z,100.00
2019-04-14T22:58:38.820Z,100.00
2019-04-14T23:01:50.470Z,100.00
2019-04-14T23:05:09.979Z,100.00
2019-04-14T23:08:37.645Z,100.00
2019-04-14T23:12:00.396Z,100.00
2019-04-14T23:15:24.271Z,100.00
2019-04-14T23:18:36.486Z,100.00
2019-04-14T23:21:52.233Z,100.00
2019-04-14T23:25:00.034Z,100.00
2019-04-14T23:28:09.222Z,100.00
2019-04-14T23:31:16.500Z,100.00
2019-04-14T23:34:24.468Z,100.00
2019-04-14T23:37:32.431Z,100.00
2019-04-14T23:40:39.720Z,100.00
2019-04-14T23:43:47.356Z,100.00
2019-04-14T23:46:57.070Z,100.00
2019-04-14T23:50:05.169Z,100.00
2019-04-14T23:53:12.772Z,100.00
2019-04-14T23:56:20.264Z,100.00
2019-04-14T23:59:28.848Z,100.00
